Time;durP1;ratioP1;P1;durP2;ratioP2;P2;SDS_P1;SDS_P2;PMS_P1;PMS_P2;Temp;Humidity;BMP_temperature;BMP_pressure;BME280_temperature;BME280_humidity;BME280_pressure;Samples;Min_cycle;Max_cycle;Signal;HPM_P1;HPM_P2
2021/09/22 00:01:18;;;;;;;36.47;18.95;;;;;;;10.99;99.69;103113.69;5014120;28;20073;-70
2021/09/22 00:03:46;;;;;;;31.10;17.13;;;;;;;10.97;100.00;103108.34;5011309;28;20146;-69
2021/09/22 00:06:13;;;;;;;32.28;18.48;;;;;;;10.99;100.00;103111.03;5013929;28;20056;-70
2021/09/22 00:09:05;;;;;;;35.45;18.98;;;;;;;10.96;100.00;103113.69;5008636;28;20672;-70
2021/09/22 00:11:34;;;;;;;33.53;18.13;;;;;;;10.92;100.00;103115.47;5013659;28;20848;-68
2021/09/22 00:14:02;;;;;;;32.63;17.08;;;;;;;10.88;100.00;103107.44;5010761;28;20053;-68
2021/09/22 00:16:30;;;;;;;34.30;18.73;;;;;;;10.88;100.00;103107.44;5012467;28;20474;-68
2021/09/22 00:18:58;;;;;;;34.67;19.63;;;;;;;10.89;100.00;103111.91;5013885;28;20143;-68
2021/09/22 00:21:25;;;;;;;36.40;19.45;;;;;;;10.91;100.00;103110.13;5009310;28;20509;-68
2021/09/22 00:23:53;;;;;;;36.30;20.52;;;;;;;10.85;100.00;103119.00;5015464;28;20053;-67
2021/09/22 00:26:22;;;;;;;40.47;20.08;;;;;;;10.84;100.00;103115.47;5012089;28;20088;-68
2021/09/22 00:28:51;;;;;;;34.40;17.90;;;;;;;10.80;100.00;103112.75;5011432;28;20083;-69
2021/09/22 00:31:18;;;;;;;39.83;18.48;;;;;;;10.78;100.00;103118.09;5011606;28;20053;-67
2021/09/22 00:33:46;;;;;;;32.80;17.90;;;;;;;10.77;100.00;103105.63;5012000;28;20176;-68
2021/09/22 00:36:14;;;;;;;34.28;17.67;;;;;;;10.74;100.00;103110.06;5010372;28;20060;-68
2021/09/22 00:38:42;;;;;;;33.38;18.77;;;;;;;10.69;100.00;103107.38;5010579;28;20097;-68
2021/09/22 00:41:10;;;;;;;32.63;18.40;;;;;;;10.69;100.00;103104.69;5013779;28;20053;-67
2021/09/22 00:43:38;;;;;;;33.97;18.48;;;;;;;10.70;100.00;103105.63;5013361;28;20055;-68
2021/09/22 00:46:07;;;;;;;31.48;17.13;;;;;;;10.62;100.00;103103.81;5009440;28;20053;-68
2021/09/22 00:48:35;;;;;;;35.15;18.48;;;;;;;10.66;100.00;103104.72;5011976;28;20143;-68
2021/09/22 00:51:06;;;;;;;33.75;17.42;;;;;;;10.61;100.00;103106.47;5012329;28;20103;-70
2021/09/22 00:53:34;;;;;;;30.52;15.77;;;;;;;10.59;100.00;103103.78;5013999;28;20053;-69
2021/09/22 00:56:04;;;;;;;31.85;16.65;;;;;;;10.57;100.00;103105.56;5013891;28;20087;-68
2021/09/22 00:58:33;;;;;;;36.55;18.52;;;;;;;10.59;100.00;103105.53;5012850;28;20049;-68
2021/09/22 01:01:01;;;;;;;35.60;18.52;;;;;;;10.58;100.00;103095.78;5007652;28;20049;-69
2021/09/22 01:03:31;;;;;;;39.10;18.77;;;;;;;10.56;100.00;103100.22;5011369;28;20454;-68
2021/09/22 01:06:01;;;;;;;32.85;16.25;;;;;;;10.54;100.00;103107.31;5011709;28;20049;-69
2021/09/22 01:08:30;;;;;;;32.15;17.42;;;;;;;10.51;100.00;103105.53;5014691;28;20092;-68
2021/09/22 01:11:01;;;;;;;33.67;18.83;;;;;;;10.46;100.00;103105.50;5013634;28;20459;-67
2021/09/22 01:13:29;;;;;;;33.67;18.27;;;;;;;10.45;100.00;103101.06;5012225;28;20099;-67
2021/09/22 01:15:59;;;;;;;37.05;19.00;;;;;;;10.45;100.00;103101.06;5012519;28;20053;-67
2021/09/22 01:18:32;;;;;;;28.95;16.95;;;;;;;10.42;100.00;103093.03;5011804;28;20393;-67
2021/09/22 01:21:00;;;;;;;31.63;17.20;;;;;;;10.39;100.00;103086.81;5013032;28;20052;-66
2021/09/22 01:23:29;;;;;;;30.33;16.55;;;;;;;10.38;100.00;103087.69;5010626;28;20056;-67
2021/09/22 01:25:58;;;;;;;36.05;17.50;;;;;;;10.36;100.00;103079.66;5013390;28;20068;-67
2021/09/22 01:28:29;;;;;;;35.97;17.98;;;;;;;10.37;100.00;103084.13;5013792;28;20045;-67
2021/09/22 01:31:00;;;;;;;35.20;18.48;;;;;;;10.34;100.00;103077.88;5015511;28;20096;-67
2021/09/22 01:33:28;;;;;;;33.22;16.90;;;;;;;10.32;100.00;103082.31;5015197;28;20053;-67
2021/09/22 01:35:56;;;;;;;29.90;16.30;;;;;;;10.32;100.00;103082.31;5015785;28;20049;-67
2021/09/22 01:38:25;;;;;;;36.08;18.02;;;;;;;10.30;100.00;103079.63;5018298;28;20052;-67
2021/09/22 01:40:58;;;;;;;36.05;19.17;;;;;;;10.36;100.00;103081.44;5016454;28;20460;-67
2021/09/22 01:43:27;;;;;;;31.88;17.20;;;;;;;10.33;100.00;103082.31;5015968;28;20055;-67
2021/09/22 01:45:55;;;;;;;38.90;18.85;;;;;;;10.33;100.00;103084.97;5018286;28;20045;-67
2021/09/22 01:48:23;;;;;;;34.60;19.17;;;;;;;10.34;100.00;103086.78;5017290;28;20062;-67
2021/09/22 01:50:52;;;;;;;36.60;19.10;;;;;;;10.29;100.00;103085.81;5016518;28;20045;-67
2021/09/22 01:53:20;;;;;;;34.10;18.08;;;;;;;10.26;100.00;103088.47;5015454;28;20128;-67
2021/09/22 01:55:48;;;;;;;38.22;18.15;;;;;;;10.29;100.00;103086.72;5013735;28;20309;-67
2021/09/22 01:58:17;;;;;;;41.20;20.23;;;;;;;10.25;100.00;103092.06;5015358;28;20150;-67
2021/09/22 02:00:45;;;;;;;34.78;18.00;;;;;;;10.26;100.00;103085.81;5015313;28;20965;-67
2021/09/22 02:03:16;;;;;;;39.53;18.15;;;;;;;10.27;100.00;103090.28;5016320;28;20053;-67
2021/09/22 02:05:44;;;;;;;41.75;20.20;;;;;;;10.29;100.00;103085.81;5015226;28;20053;-67
2021/09/22 02:08:12;;;;;;;36.08;17.88;;;;;;;10.22;100.00;103082.22;5013523;28;20130;-67
2021/09/22 02:10:40;;;;;;;35.50;17.63;;;;;;;10.21;100.00;103091.09;5016055;28;20083;-67
2021/09/22 02:13:09;;;;;;;35.22;18.83;;;;;;;10.16;100.00;103086.66;5014166;28;20049;-67
2021/09/22 02:15:38;;;;;;;37.70;19.38;;;;;;;10.10;100.00;103071.50;5013206;28;20057;-67
2021/09/22 02:18:08;;;;;;;38.45;18.10;;;;;;;10.09;100.00;103075.03;5012733;28;20172;-67
2021/09/22 02:20:36;;;;;;;38.15;16.20;;;;;;;10.06;100.00;103072.34;5016242;28;20049;-67
2021/09/22 02:23:04;;;;;;;34.92;16.55;;;;;;;10.04;100.00;103063.47;5014905;28;20049;-67
2021/09/22 02:25:32;;;;;;;38.22;17.73;;;;;;;10.05;100.00;103071.47;5015307;28;20084;-67
2021/09/22 02:28:00;;;;;;;41.38;19.75;;;;;;;10.06;100.00;103064.34;5013964;28;20402;-67
2021/09/22 02:30:28;;;;;;;40.85;19.40;;;;;;;10.02;100.00;103063.44;5015638;28;20079;-67
2021/09/22 02:32:57;;;;;;;39.63;18.77;;;;;;;10.04;100.00;103060.78;5015962;28;20050;-67
2021/09/22 02:35:25;;;;;;;37.78;19.65;;;;;;;10.01;100.00;103059.00;5014409;28;20060;-67
2021/09/22 02:37:53;;;;;;;43.67;21.17;;;;;;;10.09;100.00;103059.03;5013508;28;20053;-67
2021/09/22 02:40:21;;;;;;;39.25;19.75;;;;;;;10.08;100.00;103059.94;5013636;28;20045;-69
2021/09/22 02:42:48;;;;;;;41.22;20.40;;;;;;;10.08;100.00;103057.28;5015199;28;20460;-70
2021/09/22 02:45:16;;;;;;;38.17;19.83;;;;;;;10.06;100.00;103059.00;5013074;28;20092;-69
2021/09/22 02:47:44;;;;;;;34.25;17.58;;;;;;;10.00;100.00;103062.56;5014565;28;20052;-68
2021/09/22 02:50:17;;;;;;;41.67;18.98;;;;;;;10.01;100.00;103056.34;5014270;28;20559;-67
2021/09/22 02:52:46;;;;;;;;;;;;;;;10.02;100.00;103051.91;5014521;28;20053;-68
2021/09/22 02:55:14;;;;;;;45.30;23.05;;;;;;;10.07;100.00;103058.16;5014623;28;19972;-66
2021/09/22 02:57:43;;;;;;;40.72;20.30;;;;;;;9.99;100.00;103058.09;5014681;28;20045;-66
2021/09/22 03:00:12;;;;;;;40.95;21.92;;;;;;;10.00;100.00;103056.34;5014989;28;20432;-66
2021/09/22 03:02:40;;;;;;;45.30;21.90;;;;;;;10.01;100.00;103053.69;5013564;28;20096;-66
2021/09/22 03:05:09;;;;;;;42.78;22.30;;;;;;;9.96;100.00;103050.09;5015399;28;20056;-67
2021/09/22 03:07:38;;;;;;;47.65;23.15;;;;;;;9.98;100.00;103050.09;5014678;28;20072;-66
2021/09/22 03:10:08;;;;;;;41.70;21.38;;;;;;;9.98;100.00;103047.44;5013775;28;20632;-66
2021/09/22 03:12:36;;;;;;;49.67;22.42;;;;;;;9.99;100.00;103044.75;5013484;28;20053;-66
2021/09/22 03:15:04;;;;;;;44.47;23.05;;;;;;;9.98;100.00;103040.31;5014593;28;20057;-68
2021/09/22 03:17:32;;;;;;;45.00;22.75;;;;;;;9.98;100.00;103045.66;5015469;28;20379;-68
2021/09/22 03:19:59;;;;;;;43.78;22.25;;;;;;;9.95;100.00;103034.09;5014247;28;20147;-68
2021/09/22 03:22:27;;;;;;;41.08;20.33;;;;;;;9.90;100.00;103031.38;5016684;28;20383;-68
2021/09/22 03:24:56;;;;;;;46.33;21.23;;;;;;;9.90;100.00;103036.72;5014411;28;20156;-68
2021/09/22 03:27:24;;;;;;;40.45;20.88;;;;;;;9.87;100.00;103026.03;5014622;28;20482;-68
2021/09/22 03:29:52;;;;;;;46.40;22.83;;;;;;;9.88;100.00;103028.69;5015095;28;20077;-69
2021/09/22 03:32:20;;;;;;;45.58;21.67;;;;;;;9.83;100.00;103033.13;5012918;28;20053;-69
2021/09/22 03:34:47;;;;;;;42.47;22.17;;;;;;;9.81;100.00;103028.69;5015669;28;20057;-68
2021/09/22 03:37:15;;;;;;;44.15;22.70;;;;;;;9.81;100.00;103020.69;5012701;28;20136;-68
2021/09/22 03:39:44;;;;;;;40.50;21.65;;;;;;;9.73;100.00;103023.28;5013615;28;20056;-66
2021/09/22 03:42:13;;;;;;;40.10;20.27;;;;;;;9.69;100.00;103017.03;5015957;28;20049;-66
2021/09/22 03:44:41;;;;;;;42.72;22.00;;;;;;;9.70;100.00;103020.59;5015269;28;20115;-66
2021/09/22 03:47:09;;;;;;;43.00;21.10;;;;;;;9.65;100.00;103023.25;5015113;28;20049;-67
2021/09/22 03:49:37;;;;;;;42.33;20.83;;;;;;;9.59;100.00;103020.53;5012926;28;20564;-66
2021/09/22 03:52:05;;;;;;;40.35;21.02;;;;;;;9.58;100.00;103021.41;5013583;28;20045;-66
2021/09/22 03:54:33;;;;;;;43.25;21.10;;;;;;;9.58;100.00;103018.72;5012249;28;20096;-66
2021/09/22 03:57:00;;;;;;;48.20;22.08;;;;;;;9.60;100.00;103021.41;5015057;28;20058;-67
2021/09/22 03:59:30;;;;;;;49.22;24.35;;;;;;;9.61;100.00;103017.88;5012652;28;20357;-66
2021/09/22 04:01:57;;;;;;;44.72;23.98;;;;;;;9.60;100.00;103016.97;5013526;28;20073;-66
2021/09/22 04:04:25;;;;;;;49.85;23.77;;;;;;;9.59;100.00;103017.88;5015537;28;20088;-66
2021/09/22 04:06:58;;;;;;;56.85;24.25;;;;;;;9.60;100.00;103018.75;5013941;28;20180;-68
2021/09/22 04:09:26;;;;;;;51.40;25.95;;;;;;;9.65;100.00;103017.00;5015295;28;20723;-68
2021/09/22 04:11:53;;;;;;;50.33;24.27;;;;;;;9.67;100.00;103013.47;5010540;28;20049;-68
2021/09/22 04:14:22;;;;;;;48.92;23.15;;;;;;;9.63;100.00;103011.66;5013743;28;20061;-68
2021/09/22 04:16:52;;;;;;;57.97;25.45;;;;;;;9.67;100.00;103016.16;5015311;28;20132;-69
2021/09/22 04:19:19;;;;;;;55.22;25.88;;;;;;;9.68;100.00;103014.38;5011294;28;20053;-68
2021/09/22 04:21:47;;;;;;;59.63;27.88;;;;;;;9.60;100.00;103008.97;5013657;28;20561;-68
2021/09/22 04:24:15;;;;;;;53.03;26.58;;;;;;;9.64;100.00;103017.91;5012782;28;20058;-68
2021/09/22 04:26:43;;;;;;;57.05;27.25;;;;;;;9.61;100.00;103013.44;5014914;28;20049;-68
2021/09/22 04:29:11;;;;;;;58.00;26.38;;;;;;;9.64;100.00;103015.25;5011865;28;20118;-68
2021/09/22 04:31:42;;;;;;;63.30;27.90;;;;;;;9.67;100.00;103015.22;5014302;28;20060;-68
2021/09/22 04:34:12;;;;;;;71.70;30.70;;;;;;;9.67;100.00;103016.16;5011612;28;20058;-69
2021/09/22 04:36:43;;;;;;;59.78;28.45;;;;;;;9.61;100.00;103021.44;5014753;28;20498;-69
2021/09/22 04:39:11;;;;;;;63.08;29.45;;;;;;;9.60;100.00;103022.28;5012361;28;20368;-68
2021/09/22 04:41:38;;;;;;;62.13;27.48;;;;;;;9.61;100.00;103032.09;5013791;28;20579;-69
2021/09/22 04:44:06;;;;;;;54.78;26.58;;;;;;;9.54;100.00;103032.94;5013279;28;20061;-68
2021/09/22 04:46:35;;;;;;;57.83;25.67;;;;;;;9.48;100.00;103024.88;5011189;28;20045;-67
2021/09/22 04:49:05;;;;;;;47.38;24.30;;;;;;;9.50;100.00;103028.44;5014950;28;20388;-66
2021/09/22 04:51:34;;;;;;;55.80;27.00;;;;;;;9.52;100.00;103021.38;5011164;28;20556;-66
2021/09/22 04:54:02;;;;;;;54.55;26.20;;;;;;;9.49;100.00;103029.34;5013284;28;20073;-66
2021/09/22 04:56:29;;;;;;;49.38;24.10;;;;;;;9.50;100.00;103033.78;5011645;28;20516;-67
2021/09/22 04:58:57;;;;;;;51.58;25.30;;;;;;;9.48;100.00;103028.47;5011709;28;20158;-67
2021/09/22 05:01:25;;;;;;;60.70;26.90;;;;;;;9.46;100.00;103024.00;5013905;28;20136;-67
2021/09/22 05:03:53;;;;;;;52.42;24.92;;;;;;;9.43;100.00;103029.28;5009550;28;20068;-67
2021/09/22 05:06:21;;;;;;;57.05;26.95;;;;;;;9.38;100.00;103034.59;5015390;28;20053;-66
2021/09/22 05:08:50;;;;;;;50.15;24.92;;;;;;;9.38;100.00;103033.69;5010520;28;20053;-67
2021/09/22 05:11:18;;;;;;;55.67;27.75;;;;;;;9.40;100.00;103034.59;5012847;28;20152;-66
2021/09/22 05:13:46;;;;;;;51.75;25.05;;;;;;;9.40;100.00;103037.25;5011478;28;20157;-67
2021/09/22 05:16:13;;;;;;;61.80;24.98;;;;;;;9.45;100.00;103039.09;5011846;28;20080;-66
2021/09/22 05:18:41;;;;;;;58.33;25.23;;;;;;;9.45;100.00;103044.41;5015069;28;20087;-67
2021/09/22 05:21:09;;;;;;;61.00;26.60;;;;;;;9.44;100.00;103044.41;5011203;28;20532;-67
2021/09/22 05:23:37;;;;;;;59.10;26.02;;;;;;;9.44;100.00;103034.63;5014885;28;20081;-67
2021/09/22 05:26:06;;;;;;;58.85;27.58;;;;;;;9.46;100.00;103031.97;5011164;28;20092;-67
2021/09/22 05:28:34;;;;;;;57.95;26.77;;;;;;;9.47;100.00;103032.00;5008126;28;20170;-67
2021/09/22 05:31:02;;;;;;;58.33;27.25;;;;;;;9.46;100.00;103035.53;5011463;28;20053;-67
2021/09/22 05:33:30;;;;;;;54.70;25.35;;;;;;;9.49;100.00;103024.91;5012566;28;20490;-67
2021/09/22 05:35:57;;;;;;;63.75;27.60;;;;;;;9.48;100.00;103032.88;5012610;28;20076;-66
2021/09/22 05:38:25;;;;;;;57.80;26.77;;;;;;;9.45;100.00;103024.84;5011332;28;20076;-67
2021/09/22 05:40:53;;;;;;;62.05;26.08;;;;;;;9.48;100.00;103027.53;5013592;28;20061;-66
2021/09/22 05:43:22;;;;;;;63.65;27.27;;;;;;;9.51;100.00;103035.56;5013259;28;20262;-68
2021/09/22 05:45:50;;;;;;;62.33;25.92;;;;;;;9.46;100.00;103030.19;5012145;28;20042;-68
2021/09/22 05:48:18;;;;;;;61.70;26.90;;;;;;;9.47;100.00;103028.44;5008362;28;20054;-68
2021/09/22 05:50:45;;;;;;;54.25;24.60;;;;;;;9.47;100.00;103041.78;5012186;28;20115;-69
2021/09/22 05:53:14;;;;;;;50.95;25.27;;;;;;;9.48;100.00;103038.22;5010682;28;20054;-68
2021/09/22 05:55:42;;;;;;;57.03;26.70;;;;;;;9.51;100.00;103038.22;5007089;28;20934;-67
2021/09/22 05:58:15;;;;;;;57.15;26.33;;;;;;;9.56;100.00;103036.50;5014443;28;20514;-66
2021/09/22 06:00:44;;;;;;;54.33;27.80;;;;;;;9.59;100.00;103035.63;5008262;28;20049;-67
2021/09/22 06:03:12;;;;;;;62.95;27.83;;;;;;;9.62;100.00;103035.63;5010129;28;20067;-68
2021/09/22 06:05:40;;;;;;;62.17;27.95;;;;;;;9.65;100.00;103039.25;5011135;28;20061;-67
2021/09/22 06:08:09;;;;;;;56.10;24.77;;;;;;;9.67;100.00;103044.56;5013385;28;20042;-67
2021/09/22 06:10:38;;;;;;;60.05;26.08;;;;;;;9.74;100.00;103038.41;5015141;28;20148;-67
2021/09/22 06:13:06;;;;;;;57.92;25.35;;;;;;;9.74;100.00;103038.41;5011414;28;20077;-67
2021/09/22 06:15:34;;;;;;;67.07;27.00;;;;;;;9.81;100.00;103036.69;5010487;28;20049;-67
2021/09/22 06:18:03;;;;;;;62.75;26.48;;;;;;;9.85;100.00;103031.34;5014521;28;20037;-66
2021/09/22 06:20:32;;;;;;;61.97;26.88;;;;;;;9.93;100.00;103034.06;5011163;28;20123;-66
2021/09/22 06:23:00;;;;;;;66.75;28.88;;;;;;;10.01;100.00;103034.09;5014390;28;20453;-66
2021/09/22 06:25:28;;;;;;;65.60;29.33;;;;;;;10.10;100.00;103039.50;5012988;28;20123;-66
2021/09/22 06:27:56;;;;;;;66.10;27.92;;;;;;;10.18;100.00;103036.84;5014466;28;20118;-66
2021/09/22 06:30:24;;;;;;;63.25;27.60;;;;;;;10.27;100.00;103036.91;5012988;28;20050;-66
2021/09/22 06:32:52;;;;;;;70.30;29.95;;;;;;;10.40;100.00;103044.13;5013758;28;20154;-68
2021/09/22 06:35:21;;;;;;;80.68;32.72;;;;;;;10.52;100.00;103031.69;5014832;28;20057;-68
2021/09/22 06:37:49;;;;;;;85.32;32.20;;;;;;;10.62;100.00;103033.47;5014025;28;20455;-68
2021/09/22 06:40:19;;;;;;;79.38;31.95;;;;;;;10.71;100.00;103035.28;5013940;28;20462;-68
2021/09/22 06:42:48;;;;;;;76.18;31.17;;;;;;;10.79;100.00;103038.88;5014101;28;20057;-70
2021/09/22 06:45:18;;;;;;;86.82;33.63;;;;;;;10.96;100.00;103038.88;5014511;28;20154;-69
2021/09/22 06:47:47;;;;;;;70.70;30.83;;;;;;;11.00;100.00;103043.38;5016450;28;20061;-69
2021/09/22 06:50:15;;;;;;;75.00;31.63;;;;;;;11.15;100.00;103043.38;5010249;28;20053;-69
2021/09/22 06:52:44;;;;;;;79.40;31.92;;;;;;;11.29;100.00;103040.72;5016446;28;20049;-69
2021/09/22 06:55:13;;;;;;;76.85;33.85;;;;;;;11.45;100.00;103040.69;5016667;28;20100;-70
2021/09/22 06:57:41;;;;;;;84.80;34.85;;;;;;;11.61;100.00;103039.78;5012823;28;20057;-67
2021/09/22 07:00:13;;;;;;;87.43;36.17;;;;;;;11.78;100.00;103040.66;5014371;28;20057;-67
2021/09/22 07:02:42;;;;;;;77.35;31.65;;;;;;;11.93;100.00;103042.41;5013388;28;20505;-67
2021/09/22 07:05:12;;;;;;;74.53;32.53;;;;;;;12.15;100.00;103043.22;5016509;28;20053;-69
2021/09/22 07:07:40;;;;;;;77.10;33.15;;;;;;;12.29;100.00;103037.84;5015983;28;20444;-70
2021/09/22 07:10:10;;;;;;;71.22;31.63;;;;;;;12.50;100.00;103049.34;5015836;28;20066;-69
2021/09/22 07:12:38;;;;;;;82.40;32.65;;;;;;;12.78;100.00;103044.72;5014388;28;20144;-69
2021/09/22 07:15:07;;;;;;;71.60;31.90;;;;;;;12.98;100.00;103051.75;5014546;28;20064;-69
2021/09/22 07:17:35;;;;;;;69.47;30.75;;;;;;;13.13;100.00;103051.63;5013500;28;20137;-69
2021/09/22 07:20:05;;;;;;;74.18;32.40;;;;;;;13.35;100.00;103057.75;5013289;28;20054;-69
2021/09/22 07:22:33;;;;;;;60.70;28.45;;;;;;;13.61;100.00;103064.66;5018498;28;20481;-69
2021/09/22 07:25:01;;;;;;;67.95;31.38;;;;;;;13.85;100.00;103055.47;5012078;28;20482;-69
2021/09/22 07:27:31;;;;;;;57.85;29.80;;;;;;;13.99;98.75;103047.28;5013242;28;20115;-69
2021/09/22 07:29:59;;;;;;;58.47;27.95;;;;;;;14.19;97.67;103047.03;5017652;28;20053;-69
2021/09/22 07:32:28;;;;;;;63.17;28.02;;;;;;;14.40;95.99;103045.88;5013204;28;20111;-68
2021/09/22 07:34:56;;;;;;;58.00;27.67;;;;;;;14.83;94.53;103044.41;5014351;28;20459;-66
2021/09/22 07:37:24;;;;;;;50.28;26.35;;;;;;;15.03;93.55;103047.69;5013280;28;20123;-66
2021/09/22 07:39:52;;;;;;;54.40;25.42;;;;;;;15.11;90.90;103036.81;5015783;28;20045;-66
2021/09/22 07:42:20;;;;;;;47.00;23.42;;;;;;;15.24;89.67;103033.00;5013391;28;20531;-68
2021/09/22 07:44:53;;;;;;;46.90;23.27;;;;;;;15.45;87.85;103038.94;5014771;28;20057;-67
2021/09/22 07:47:22;;;;;;;44.43;21.50;;;;;;;15.69;88.55;103040.28;5016632;28;20049;-68
2021/09/22 07:49:50;;;;;;;40.67;22.10;;;;;;;15.75;87.36;103032.16;5012684;28;20483;-66
2021/09/22 07:52:18;;;;;;;40.40;20.95;;;;;;;15.70;84.38;103034.00;5015908;28;20053;-67
2021/09/22 07:54:46;;;;;;;36.67;19.60;;;;;;;15.81;83.80;103036.50;5013199;28;20046;-67
2021/09/22 07:57:15;;;;;;;34.80;18.63;;;;;;;15.87;82.87;103031.91;5015357;28;20103;-66
2021/09/22 07:59:42;;;;;;;35.17;18.23;;;;;;;16.10;81.33;103026.97;5013402;28;20053;-67
2021/09/22 08:02:12;;;;;;;33.45;18.35;;;;;;;16.19;81.41;103022.28;5013408;28;20083;-66
2021/09/22 08:04:39;;;;;;;36.33;18.17;;;;;;;16.49;80.26;103011.75;5015956;28;20107;-67
2021/09/22 08:07:11;;;;;;;35.88;19.45;;;;;;;16.60;79.66;103022.28;5011849;28;20164;-67
2021/09/22 08:09:39;;;;;;;31.90;18.05;;;;;;;16.59;78.00;103026.78;5015956;28;20489;-67
2021/09/22 08:12:07;;;;;;;32.67;16.88;;;;;;;16.64;77.68;103021.28;5015560;28;20061;-67
2021/09/22 08:14:36;;;;;;;34.63;17.10;;;;;;;16.99;77.18;103009.72;5014087;28;20554;-66
2021/09/22 08:17:05;;;;;;;32.30;17.25;;;;;;;17.06;76.20;103014.94;5010611;28;20548;-66
2021/09/22 08:19:35;;;;;;;39.13;17.80;;;;;;;17.12;75.61;103020.19;5013856;28;20049;-67
2021/09/22 08:22:04;;;;;;;29.13;15.88;;;;;;;17.18;76.59;103011.94;5016529;28;20053;-66
2021/09/22 08:24:55;;;;;;;30.42;16.05;;;;;;;17.32;75.46;103022.38;5013391;28;20060;-67
2021/09/22 08:27:23;;;;;;;30.30;16.23;;;;;;;17.15;75.20;103021.00;5011866;28;20058;-67
2021/09/22 08:29:51;;;;;;;27.65;15.80;;;;;;;17.20;75.62;103030.75;5012952;28;20494;-66
2021/09/22 08:32:18;;;;;;;28.60;14.68;;;;;;;17.04;75.40;103017.66;5013860;28;20120;-66
2021/09/22 08:34:48;;;;;;;30.85;16.05;;;;;;;17.14;74.85;103012.94;5015971;28;20158;-66
2021/09/22 08:37:16;;;;;;;26.20;14.98;;;;;;;17.34;74.65;103005.22;5012852;28;20080;-66
2021/09/22 08:39:49;;;;;;;31.45;16.30;;;;;;;17.26;73.62;103009.03;5014990;28;20042;-66
2021/09/22 08:42:16;;;;;;;27.33;14.60;;;;;;;17.52;72.20;103021.81;5012654;28;20049;-65
2021/09/22 08:44:46;;;;;;;27.63;15.60;;;;;;;17.91;72.46;103016.28;5010337;28;20060;-66
2021/09/22 08:47:14;;;;;;;27.60;14.77;;;;;;;17.90;71.67;103020.81;5013751;28;20045;-66
2021/09/22 08:49:42;;;;;;;25.35;14.98;;;;;;;17.98;71.50;103019.72;5015050;28;20045;-65
2021/09/22 08:52:12;;;;;;;31.00;15.63;;;;;;;18.10;70.41;103020.25;5014724;28;20053;-66
2021/09/22 08:54:41;;;;;;;28.75;13.85;;;;;;;18.24;70.15;103025.25;5013160;28;20076;-69
2021/09/22 08:57:09;;;;;;;29.52;14.55;;;;;;;18.09;70.78;103020.28;5012778;28;20468;-66
2021/09/22 08:59:36;;;;;;;27.55;14.02;;;;;;;18.35;70.86;103026.72;5011844;28;20107;-66
2021/09/22 09:02:07;;;;;;;29.17;16.65;;;;;;;18.28;69.62;103032.31;5011662;28;20207;-67
2021/09/22 09:04:37;;;;;;;28.20;15.35;;;;;;;18.24;69.10;103032.47;5013321;28;20549;-67
2021/09/22 09:07:05;;;;;;;30.90;14.25;;;;;;;18.55;69.73;103024.28;5011450;28;20053;-66
2021/09/22 09:09:39;;;;;;;27.90;14.57;;;;;;;18.73;69.76;103021.94;5010772;28;20057;-66
2021/09/22 09:12:15;;;;;;;;;;;;;;;18.72;68.40;103021.06;5011548;28;20139;-66
2021/09/22 09:14:52;;;;;;;24.45;14.18;;;;;;;18.75;68.14;103028.22;5011738;28;19947;-66
2021/09/22 09:17:37;;;;;;;30.30;13.77;;;;;;;18.91;68.55;103031.31;5012928;28;20551;-67
2021/09/22 09:20:18;;;;;;;29.30;14.35;;;;;;;19.39;67.40;103023.38;5014609;28;20248;-68
2021/09/22 09:23:06;;;;;;;30.88;16.17;;;;;;;19.67;65.56;103025.09;5014809;28;20049;-68
2021/09/22 09:25:42;;;;;;;31.45;16.60;;;;;;;19.68;65.30;103013.34;5012748;28;20057;-68
2021/09/22 09:28:23;;;;;;;29.55;14.57;;;;;;;19.66;66.01;103012.50;5014324;28;20057;-68
2021/09/22 09:30:55;;;;;;;30.45;15.27;;;;;;;19.28;67.29;103012.03;5010099;28;20128;-68
2021/09/22 09:33:37;;;;;;;30.25;15.20;;;;;;;19.49;67.37;103009.50;5013149;28;20053;-66
2021/09/22 09:36:24;;;;;;;29.37;16.30;;;;;;;19.14;66.86;103011.63;5011936;28;20621;-66
2021/09/22 09:38:55;;;;;;;27.70;14.38;;;;;;;19.06;67.08;103001.06;5013797;28;20360;-68
2021/09/22 09:41:48;;;;;;;32.45;15.13;;;;;;;19.18;66.31;102997.94;5012626;28;20081;-67
2021/09/22 09:44:18;;;;;;;28.27;15.00;;;;;;;19.31;65.92;103001.09;5009579;28;20132;-67
2021/09/22 09:46:46;;;;;;;30.05;15.57;;;;;;;19.66;65.96;102998.06;5011425;28;20144;-67
2021/09/22 09:49:15;;;;;;;31.63;15.77;;;;;;;20.00;64.89;102994.16;5013964;28;20112;-67
2021/09/22 09:51:45;;;;;;;27.80;14.48;;;;;;;20.06;65.01;102993.94;5013920;28;20449;-67
2021/09/22 09:54:21;;;;;;;30.08;15.30;;;;;;;19.89;64.79;102991.84;5015292;28;20568;-67
2021/09/22 09:56:53;;;;;;;30.40;14.90;;;;;;;20.35;63.78;102995.50;5017403;28;20906;-67
2021/09/22 09:59:23;;;;;;;28.35;14.45;;;;;;;20.42;62.86;102996.16;5014193;28;20076;-67
2021/09/22 10:01:52;;;;;;;26.92;14.65;;;;;;;20.36;62.29;102993.66;5014548;28;20112;-67
2021/09/22 10:04:23;;;;;;;27.75;14.30;;;;;;;20.53;61.96;102988.44;5017328;28;20045;-67
2021/09/22 10:06:51;;;;;;;30.08;14.38;;;;;;;20.57;61.36;102995.53;5014136;28;20505;-68
2021/09/22 10:09:20;;;;;;;25.05;12.98;;;;;;;20.49;61.14;102992.25;5015775;28;20552;-67
2021/09/22 10:11:48;;;;;;;22.80;12.15;;;;;;;21.16;60.81;102985.84;5012147;28;20049;-67
2021/09/22 10:14:18;;;;;;;25.55;13.10;;;;;;;21.29;59.83;102997.09;5012984;28;20588;-67
2021/09/22 10:16:50;;;;;;;29.35;14.88;;;;;;;20.92;60.42;102992.34;5014866;28;20108;-67
2021/09/22 10:19:19;;;;;;;27.88;13.15;;;;;;;21.17;59.68;102993.06;5015342;28;20076;-67
2021/09/22 10:21:47;;;;;;;24.77;13.38;;;;;;;21.42;59.06;102990.16;5017589;28;20466;-68
2021/09/22 10:24:15;;;;;;;27.98;14.68;;;;;;;21.34;58.78;102994.19;5012831;28;20132;-67
2021/09/22 10:26:45;;;;;;;26.75;13.93;;;;;;;21.42;58.61;102989.31;5014885;28;20117;-65
2021/09/22 10:29:23;;;;;;;29.38;14.85;;;;;;;21.57;57.92;102995.88;5013036;28;20123;-65
2021/09/22 10:31:53;;;;;;;31.63;14.88;;;;;;;21.77;58.88;102987.72;5015328;28;20053;-69
2021/09/22 10:34:33;;;;;;;25.38;13.10;;;;;;;21.78;57.47;102989.50;5015591;28;20096;-70
2021/09/22 10:37:03;;;;;;;24.83;12.63;;;;;;;21.71;57.72;102982.59;5011500;28;20053;-70
2021/09/22 10:39:44;;;;;;;23.08;13.05;;;;;;;22.01;56.60;102979.38;5014948;28;20158;-69
2021/09/22 10:42:30;;;;;;;23.75;12.88;;;;;;;21.79;55.68;102980.41;5011881;28;20627;-69
2021/09/22 10:45:21;;;;;;;21.63;12.32;;;;;;;21.41;57.77;102973.94;5012047;28;20046;-67
2021/09/22 10:47:49;;;;;;;27.88;13.60;;;;;;;20.96;58.07;102966.84;5010816;28;20525;-69
2021/09/22 10:50:45;;;;;;;22.70;12.73;;;;;;;21.37;57.89;102965.06;5010122;28;21496;-68
2021/09/22 10:53:35;;;;;;;24.05;12.07;;;;;;;21.42;56.80;102970.28;5015306;28;20107;-68
2021/09/22 10:56:04;;;;;;;18.45;9.25;;;;;;;22.04;55.48;102962.06;5013794;28;20072;-69
2021/09/22 10:58:33;;;;;;;19.92;10.57;;;;;;;22.27;54.15;102959.13;5015423;28;20060;-68
2021/09/22 11:01:03;;;;;;;21.85;11.38;;;;;;;21.84;55.68;102961.16;5009448;28;20131;-67
2021/09/22 11:03:56;;;;;;;25.02;12.43;;;;;;;21.31;57.64;102953.59;5012989;28;20354;-70
2021/09/22 11:06:56;;;;;;;22.88;12.13;;;;;;;22.08;56.13;102953.69;4993657;28;20057;-67
2021/09/22 11:09:35;;;;;;;18.67;10.88;;;;;;;21.25;56.53;102943.88;5014118;28;20492;-66
2021/09/22 11:12:11;;;;;;;20.67;11.45;;;;;;;22.18;55.78;102940.53;5014217;28;20057;-67
2021/09/22 11:14:42;;;;;;;22.35;12.65;;;;;;;22.50;54.74;102943.56;5014169;28;20050;-68
2021/09/22 11:17:14;;;;;;;22.67;11.98;;;;;;;22.27;53.46;102941.91;5013256;28;20049;-68
2021/09/22 11:19:44;;;;;;;18.42;13.23;;;;;;;22.86;53.37;102932.66;5010847;28;20049;-66